ORBI/SDA METAR and TAF weather

Enter ICAO airport designator
Station Type Date Time Source
ORBI METAR 2020/11/27 03:00 UTC NOAA

ORBI 270300Z 30004KT CAVOK 12/08 Q1017 NOSIG


Station Type Date Time Source
ORBI Decoded METAR 2020/11/27 03:00 UTC NOAA

Station name not available
Nov 26, 2020 - 10:00 PM EST / 2020.11.27 0300 UTC
Wind: from the WNW (300 degrees) at 5 MPH (4 KT):0
Visibility: greater than 7 mile(s):0
Temperature: 53 F (12 C)
Dew Point: 46 F (8 C)
Relative Humidity: 76%
Pressure (altimeter): 30.03 in. Hg (1017 hPa)
ob: ORBI 270300Z 30004KT CAVOK 12/08 Q1017 NOSIG
cycle: 3

Station Type Date Time Source
ORBI TAF 2020/11/26 18:46 UTC NOAA

TAF ORBI 261600Z 2618/2718 VRB02KT CAVOK
BECMG 2706/2709 05005KT 8000 NSC

Example: see airport list